createdAt,value
2023-05-07T00:01:30.672Z,5.43
2023-05-07T00:04:00.483Z,3.20
2023-05-07T00:06:29.949Z,6.27
2023-05-07T00:08:58.837Z,4.87
2023-05-07T00:11:27.728Z,2.70
2023-05-07T00:13:56.113Z,3.73
2023-05-07T00:16:24.441Z,3.53
2023-05-07T00:18:52.773Z,3.13
2023-05-07T00:21:22.520Z,2.93
2023-05-07T00:23:50.760Z,6.10
2023-05-07T00:26:18.978Z,3.90
2023-05-07T00:28:47.121Z,2.60
2023-05-07T00:31:15.387Z,3.47
2023-05-07T00:33:43.646Z,3.73
2023-05-07T00:36:14.289Z,2.10
2023-05-07T00:38:43.818Z,4.23
2023-05-07T00:41:11.976Z,3.27
2023-05-07T00:43:40.798Z,3.60
2023-05-07T00:46:09.171Z,2.77
2023-05-07T00:48:37.442Z,3.07
2023-05-07T00:51:05.892Z,4.60
2023-05-07T00:53:34.108Z,3.67
2023-05-07T00:56:03.693Z,2.23
2023-05-07T00:58:32.372Z,3.80
2023-05-07T01:01:00.615Z,3.43
2023-05-07T01:03:28.980Z,4.87
2023-05-07T01:05:58.517Z,4.03
2023-05-07T01:08:28.970Z,4.60
2023-05-07T01:10:57.436Z,3.73
2023-05-07T01:13:27.412Z,4.67
2023-05-07T01:15:55.834Z,4.97
2023-05-07T01:18:24.110Z,3.33
2023-05-07T01:20:52.290Z,4.17
2023-05-07T01:23:21.898Z,4.07
2023-05-07T01:25:54.098Z,2.20
2023-05-07T01:28:22.830Z,3.33
2023-05-07T01:31:04.221Z,2.30
2023-05-07T01:33:34.584Z,2.93
2023-05-07T01:36:04.624Z,4.83
2023-05-07T01:38:34.592Z,3.63
2023-05-07T01:41:02.780Z,3.67
2023-05-07T01:43:31.204Z,2.33
2023-05-07T01:46:00.539Z,3.60
2023-05-07T01:48:28.812Z,2.53
2023-05-07T01:50:57.621Z,3.80
2023-05-07T01:53:25.810Z,2.87
2023-05-07T01:55:55.514Z,3.37
2023-05-07T01:58:23.694Z,4.07
2023-05-07T02:00:52.012Z,3.17
2023-05-07T02:03:20.332Z,2.63
2023-05-07T02:05:48.571Z,4.33
2023-05-07T02:08:16.724Z,5.93
2023-05-07T02:10:44.908Z,5.83
2023-05-07T02:13:14.466Z,2.60
2023-05-07T02:15:42.656Z,3.23
2023-05-07T02:18:11.211Z,2.47
2023-05-07T02:20:39.383Z,2.67
2023-05-07T02:23:07.541Z,3.63
2023-05-07T02:25:35.770Z,4.00
2023-05-07T02:28:03.939Z,3.07
2023-05-07T02:30:33.889Z,3.70
2023-05-07T02:33:02.200Z,5.23
2023-05-07T02:35:30.464Z,2.93
2023-05-07T02:37:58.668Z,3.33
2023-05-07T02:40:26.848Z,3.13
2023-05-07T02:42:55.004Z,5.13
2023-05-07T02:45:24.283Z,3.03
2023-05-07T02:47:53.934Z,2.60
2023-05-07T02:50:22.171Z,2.93
2023-05-07T02:52:50.369Z,4.40
2023-05-07T02:55:18.644Z,2.10
2023-05-07T02:57:46.805Z,3.53
2023-05-07T03:00:16.618Z,3.07
2023-05-07T03:02:45.000Z,2.90
2023-05-07T03:05:15.369Z,3.83
2023-05-07T03:07:46.118Z,3.70
2023-05-07T03:10:14.419Z,2.97
2023-05-07T03:12:42.591Z,2.97
2023-05-07T03:15:12.364Z,2.47
2023-05-07T03:17:40.758Z,5.43
2023-05-07T03:20:11.137Z,2.97
2023-05-07T03:22:40.913Z,4.67
2023-05-07T03:25:09.741Z,3.53
2023-05-07T03:27:38.006Z,2.33
2023-05-07T03:30:07.918Z,3.30
2023-05-07T03:32:36.344Z,4.20
2023-05-07T03:35:04.782Z,4.57
2023-05-07T03:37:32.983Z,1.90
2023-05-07T03:40:03.119Z,3.03
2023-05-07T03:42:31.429Z,3.60
2023-05-07T03:44:59.642Z,3.90
2023-05-07T03:47:27.831Z,2.47
2023-05-07T03:49:56.054Z,4.10
2023-05-07T03:52:26.846Z,2.53
2023-05-07T03:54:55.307Z,2.60
2023-05-07T03:57:24.837Z,2.50
2023-05-07T03:59:52.995Z,2.60
2023-05-07T04:02:21.197Z,3.27
2023-05-07T04:04:51.109Z,3.13
2023-05-07T04:07:19.276Z,3.70
2023-05-07T04:09:47.458Z,3.37
2023-05-07T04:12:15.666Z,2.87
2023-05-07T04:14:45.194Z,3.83
2023-05-07T04:17:13.360Z,2.90
2023-05-07T04:19:46.072Z,2.73
2023-05-07T04:22:14.236Z,5.37
2023-05-07T04:24:42.436Z,2.67
2023-05-07T04:27:10.616Z,3.77
2023-05-07T04:29:39.512Z,2.47
2023-05-07T04:32:09.160Z,2.73
2023-05-07T04:34:37.355Z,2.80
2023-05-07T04:37:05.496Z,2.77
2023-05-07T04:39:36.234Z,2.60
2023-05-07T04:42:05.014Z,3.07
2023-05-07T04:44:33.665Z,4.20
2023-05-07T04:47:01.854Z,3.03
2023-05-07T04:49:31.367Z,3.27
2023-05-07T04:51:59.524Z,3.63
2023-05-07T04:54:27.704Z,3.63
2023-05-07T04:56:55.862Z,2.37
2023-05-07T04:59:24.161Z,5.50
2023-05-07T05:01:52.493Z,3.03
2023-05-07T05:04:20.755Z,3.17
2023-05-07T05:06:50.274Z,3.97
2023-05-07T05:09:18.464Z,4.80
2023-05-07T05:11:46.871Z,4.47
2023-05-07T05:14:15.040Z,3.00
2023-05-07T05:16:43.207Z,2.93
2023-05-07T05:19:11.459Z,4.53
2023-05-07T05:21:39.702Z,4.07
2023-05-07T05:24:09.492Z,2.73
2023-05-07T05:26:37.746Z,2.40
2023-05-07T05:29:06.118Z,3.90
2023-05-07T05:31:34.664Z,3.40
2023-05-07T05:34:02.887Z,4.30
2023-05-07T05:36:31.549Z,3.03
2023-05-07T05:38:59.707Z,3.17
2023-05-07T05:41:29.193Z,3.23
2023-05-07T05:43:57.327Z,3.00
2023-05-07T05:46:25.612Z,4.07
2023-05-07T05:48:53.776Z,4.00
2023-05-07T05:51:21.970Z,2.83
2023-05-07T05:53:50.111Z,3.33
2023-05-07T05:56:18.428Z,3.03
2023-05-07T05:58:47.973Z,3.30
2023-05-07T06:01:16.213Z,3.40
2023-05-07T06:03:44.412Z,2.43
2023-05-07T06:06:12.610Z,4.10
2023-05-07T06:08:40.758Z,2.40
2023-05-07T06:11:08.912Z,2.63
2023-05-07T06:13:37.108Z,3.23
2023-05-07T06:16:07.176Z,3.07
2023-05-07T06:18:36.966Z,2.90
2023-05-07T06:21:05.223Z,3.77
2023-05-07T06:23:33.377Z,6.57
2023-05-07T06:26:01.540Z,3.03
2023-05-07T06:28:31.704Z,3.37
2023-05-07T06:31:14.765Z,2.93
2023-05-07T06:33:43.428Z,2.97
2023-05-07T06:36:11.605Z,2.60
2023-05-07T06:38:39.766Z,3.23
2023-05-07T06:41:08.266Z,2.40
2023-05-07T06:43:36.438Z,4.10
2023-05-07T06:46:04.627Z,4.80
2023-05-07T06:48:34.216Z,5.00
2023-05-07T06:51:02.359Z,2.90
2023-05-07T06:53:31.595Z,3.13
2023-05-07T06:55:59.870Z,3.57
2023-05-07T06:58:28.084Z,2.43
2023-05-07T07:00:56.249Z,2.40
2023-05-07T07:03:24.433Z,4.03
2023-05-07T07:05:55.411Z,2.60
2023-05-07T07:08:24.586Z,7.00
2023-05-07T07:10:52.758Z,2.73
2023-05-07T07:13:21.270Z,4.00
2023-05-07T07:15:49.597Z,2.60
2023-05-07T07:18:17.752Z,3.40
2023-05-07T07:20:46.285Z,2.73
2023-05-07T07:23:15.889Z,3.40
2023-05-07T07:25:44.153Z,3.97
2023-05-07T07:28:12.583Z,2.93
2023-05-07T07:30:41.069Z,3.07
2023-05-07T07:33:09.263Z,3.83
2023-05-07T07:35:37.529Z,4.27
2023-05-07T07:38:05.736Z,3.70
2023-05-07T07:40:37.140Z,3.57
2023-05-07T07:43:05.897Z,2.50
2023-05-07T07:45:34.172Z,3.07
2023-05-07T07:48:02.436Z,2.93
2023-05-07T07:50:43.555Z,3.97
2023-05-07T07:53:13.050Z,1.73
2023-05-07T07:55:42.731Z,2.07
2023-05-07T07:58:10.929Z,2.50
2023-05-07T08:00:39.106Z,2.73
2023-05-07T08:03:08.393Z,1.30
2023-05-07T08:05:37.014Z,3.87
2023-05-07T08:08:05.404Z,2.20
2023-05-07T08:10:35.528Z,3.27
2023-05-07T08:13:05.446Z,3.97
2023-05-07T08:15:34.117Z,6.40
2023-05-07T08:18:02.330Z,2.07
2023-05-07T08:20:30.940Z,1.63
2023-05-07T08:22:59.141Z,3.53
2023-05-07T08:25:27.333Z,1.37
2023-05-07T08:27:55.366Z,3.53
2023-05-07T08:30:28.132Z,1.33
2023-05-07T08:32:56.115Z,2.10
2023-05-07T08:35:24.317Z,2.50
2023-05-07T08:37:52.193Z,3.00
2023-05-07T08:40:20.555Z,1.17
2023-05-07T08:42:51.853Z,2.60
2023-05-07T08:45:21.818Z,3.53
2023-05-07T08:47:54.831Z,2.00
2023-05-07T08:50:23.280Z,2.10
2023-05-07T08:52:51.567Z,2.13
2023-05-07T08:55:20.043Z,2.92
2023-05-07T08:57:49.392Z,1.83
2023-05-07T09:00:17.781Z,1.38
2023-05-07T09:02:45.973Z,1.35
2023-05-07T09:05:15.549Z,2.60
2023-05-07T09:07:43.731Z,2.38
2023-05-07T09:10:16.694Z,3.53
2023-05-07T09:12:44.921Z,2.00
2023-05-07T09:15:14.120Z,1.92
2023-05-07T09:17:43.338Z,1.73
2023-05-07T09:20:12.026Z,3.60
2023-05-07T09:22:41.632Z,3.25
2023-05-07T09:25:10.507Z,1.77
2023-05-07T09:27:38.969Z,3.85
2023-05-07T09:30:07.938Z,1.92
2023-05-07T09:32:37.697Z,2.45
2023-05-07T09:35:06.158Z,2.58
2023-05-07T09:37:34.403Z,4.75
2023-05-07T09:40:04.764Z,2.45
2023-05-07T09:42:32.968Z,2.13
2023-05-07T09:45:01.958Z,3.45
2023-05-07T09:47:33.378Z,2.90
2023-05-07T09:50:02.486Z,5.00
2023-05-07T09:52:34.409Z,2.35
2023-05-07T09:55:04.809Z,2.50
2023-05-07T09:57:33.286Z,2.23
2023-05-07T10:00:03.036Z,2.00
2023-05-07T10:02:32.070Z,4.10
2023-05-07T10:05:01.470Z,4.83
2023-05-07T10:07:30.213Z,3.33
2023-05-07T10:09:58.398Z,2.07
2023-05-07T10:12:28.325Z,5.60
2023-05-07T10:14:57.131Z,2.93
2023-05-07T10:17:26.246Z,1.87
2023-05-07T10:19:55.946Z,3.87
2023-05-07T10:22:24.759Z,2.70
2023-05-07T10:24:55.424Z,1.90
2023-05-07T10:27:24.034Z,2.20
2023-05-07T10:29:56.323Z,2.37
2023-05-07T10:32:36.072Z,3.30
2023-05-07T10:35:05.657Z,1.87
2023-05-07T10:37:33.846Z,2.57
2023-05-07T10:40:02.147Z,2.43
2023-05-07T10:42:30.347Z,1.57
2023-05-07T10:44:59.881Z,2.47
2023-05-07T10:47:28.069Z,1.53
2023-05-07T10:50:14.791Z,4.20
2023-05-07T10:52:43.042Z,3.87
2023-05-07T10:55:26.201Z,3.30
2023-05-07T10:57:54.550Z,3.40
2023-05-07T11:00:41.147Z,2.57
2023-05-07T11:03:11.653Z,2.47
2023-05-07T11:05:40.287Z,1.70
2023-05-07T11:08:08.893Z,3.30
2023-05-07T11:10:53.281Z,3.63
2023-05-07T11:13:21.989Z,2.60
2023-05-07T11:15:50.986Z,3.07
2023-05-07T11:18:20.619Z,2.53
2023-05-07T11:20:54.325Z,2.20
2023-05-07T11:24:00.258Z,2.77
2023-05-07T11:26:29.887Z,2.53
2023-05-07T11:28:57.879Z,2.60
2023-05-07T11:31:28.148Z,2.50
2023-05-07T11:33:57.795Z,4.30
2023-05-07T11:36:26.981Z,3.00
2023-05-07T11:38:54.932Z,3.57
2023-05-07T11:41:23.687Z,4.10
2023-05-07T11:43:59.090Z,3.87
2023-05-07T11:46:27.488Z,7.80
2023-05-07T11:48:56.823Z,3.97
2023-05-07T11:51:26.999Z,2.20
2023-05-07T11:53:55.703Z,2.80
2023-05-07T11:56:23.716Z,5.20
2023-05-07T11:58:53.002Z,5.27
2023-05-07T12:01:20.885Z,3.40
2023-05-07T12:03:48.913Z,2.77
2023-05-07T12:06:19.274Z,3.10
2023-05-07T12:08:48.711Z,3.93
2023-05-07T12:11:19.857Z,4.23
2023-05-07T12:13:47.731Z,3.13
2023-05-07T12:16:15.933Z,7.13
2023-05-07T12:18:44.304Z,6.70
2023-05-07T12:21:12.770Z,7.63
2023-05-07T12:23:42.378Z,6.00
2023-05-07T12:26:11.242Z,5.63
2023-05-07T12:28:40.547Z,9.07
2023-05-07T12:31:09.394Z,6.37
2023-05-07T12:33:37.808Z,10.67
2023-05-07T12:36:08.438Z,7.60
2023-05-07T12:38:42.052Z,7.43
2023-05-07T12:41:11.553Z,7.67
2023-05-07T12:43:39.684Z,7.77
2023-05-07T12:46:09.552Z,7.53
2023-05-07T12:48:39.765Z,6.33
2023-05-07T12:51:08.586Z,8.63
2023-05-07T12:53:42.037Z,8.67
2023-05-07T12:56:11.696Z,4.90
2023-05-07T12:58:40.015Z,7.03
2023-05-07T13:01:10.727Z,9.80
2023-05-07T13:03:40.276Z,9.40
2023-05-07T13:06:10.440Z,10.43
2023-05-07T13:08:41.194Z,5.90
2023-05-07T13:11:12.105Z,10.50
2023-05-07T13:13:42.009Z,8.63
2023-05-07T13:16:11.771Z,8.03
2023-05-07T13:18:41.146Z,8.43
2023-05-07T13:21:09.492Z,7.33
2023-05-07T13:23:39.364Z,8.80
2023-05-07T13:26:18.502Z,8.20
2023-05-07T13:28:55.503Z,10.10
2023-05-07T13:31:23.544Z,8.20
2023-05-07T13:33:51.552Z,7.50
2023-05-07T13:36:19.484Z,12.37
2023-05-07T13:38:47.439Z,9.70
2023-05-07T13:41:15.761Z,7.90
2023-05-07T13:43:43.602Z,8.63
2023-05-07T13:46:12.821Z,8.20
2023-05-07T13:48:40.769Z,6.37
2023-05-07T13:51:08.741Z,11.33
2023-05-07T13:53:36.589Z,7.67
2023-05-07T13:56:05.600Z,6.37
2023-05-07T13:58:33.882Z,8.90
2023-05-07T14:01:01.942Z,4.33
2023-05-07T14:03:32.858Z,6.50
2023-05-07T14:06:02.234Z,6.23
2023-05-07T14:08:31.703Z,4.43
2023-05-07T14:11:00.928Z,5.13
2023-05-07T14:13:28.917Z,4.77
2023-05-07T14:15:56.895Z,3.57
2023-05-07T14:18:24.735Z,3.17
2023-05-07T14:20:53.907Z,7.00
2023-05-07T14:23:26.500Z,2.63
2023-05-07T14:25:54.544Z,5.63
2023-05-07T14:28:22.437Z,6.07
2023-05-07T14:30:50.567Z,3.90
2023-05-07T14:33:19.209Z,3.90
2023-05-07T14:35:49.809Z,4.93
2023-05-07T14:38:19.120Z,5.40
2023-05-07T14:40:47.174Z,5.13
2023-05-07T14:43:15.002Z,7.37
2023-05-07T14:45:43.188Z,5.60
2023-05-07T14:48:15.938Z,5.43
2023-05-07T14:50:43.896Z,6.03
2023-05-07T14:53:11.728Z,4.83
2023-05-07T14:55:41.088Z,3.67
2023-05-07T14:58:08.961Z,3.77
2023-05-07T15:00:36.854Z,4.80
2023-05-07T15:03:08.771Z,5.10
2023-05-07T15:05:37.771Z,5.40
2023-05-07T15:08:06.019Z,5.93
2023-05-07T15:10:41.185Z,5.63
2023-05-07T15:13:13.742Z,8.20
2023-05-07T15:15:44.702Z,5.60
2023-05-07T15:18:12.576Z,4.23
2023-05-07T15:20:40.596Z,4.80
2023-05-07T15:23:10.796Z,6.73
2023-05-07T15:25:38.772Z,5.20
2023-05-07T15:28:06.698Z,4.47
2023-05-07T15:30:35.987Z,3.40
2023-05-07T15:33:04.397Z,5.13
2023-05-07T15:35:32.496Z,4.80
2023-05-07T15:38:00.330Z,3.70
2023-05-07T15:40:28.188Z,2.97
2023-05-07T15:42:57.455Z,4.57
2023-05-07T15:45:25.689Z,5.33
2023-05-07T15:47:54.967Z,3.33
2023-05-07T15:50:22.833Z,4.20
2023-05-07T15:52:51.010Z,4.63
2023-05-07T15:55:18.854Z,4.53
2023-05-07T15:57:48.998Z,3.33
2023-05-07T16:00:18.798Z,5.43
2023-05-07T16:02:46.755Z,4.47
2023-05-07T16:05:16.053Z,3.13
2023-05-07T16:07:44.386Z,5.37
2023-05-07T16:10:13.051Z,4.43
2023-05-07T16:12:40.956Z,3.10
2023-05-07T16:15:09.639Z,4.13
2023-05-07T16:17:37.590Z,3.77
2023-05-07T16:20:09.104Z,5.47
2023-05-07T16:22:38.664Z,4.30
2023-05-07T16:25:07.648Z,4.57
2023-05-07T16:27:35.487Z,6.23
2023-05-07T16:30:03.499Z,5.27
2023-05-07T16:32:31.327Z,5.00
2023-05-07T16:34:59.206Z,3.33
2023-05-07T16:37:27.054Z,6.73
2023-05-07T16:39:57.287Z,6.57
2023-05-07T16:42:25.162Z,6.87
2023-05-07T16:44:52.970Z,6.77
2023-05-07T16:47:20.942Z,4.93
2023-05-07T16:49:48.782Z,5.13
2023-05-07T16:52:16.605Z,4.20
2023-05-07T16:54:44.472Z,5.10
2023-05-07T16:57:13.689Z,4.80
2023-05-07T16:59:41.524Z,5.73
2023-05-07T17:02:09.368Z,4.30
2023-05-07T17:04:37.187Z,4.60
2023-05-07T17:07:05.107Z,6.00
2023-05-07T17:09:32.959Z,7.13
2023-05-07T17:12:01.435Z,5.87
2023-05-07T17:14:30.639Z,5.17
2023-05-07T17:16:58.501Z,6.40
2023-05-07T17:19:26.410Z,6.40
2023-05-07T17:21:54.291Z,8.20
2023-05-07T17:24:22.116Z,6.00
2023-05-07T17:26:49.990Z,7.03
2023-05-07T17:29:19.084Z,4.90
2023-05-07T17:31:48.358Z,7.50
2023-05-07T17:34:16.405Z,8.17
2023-05-07T17:36:44.229Z,4.40
2023-05-07T17:39:12.076Z,5.13
2023-05-07T17:41:39.893Z,4.30
2023-05-07T17:44:07.778Z,7.33
2023-05-07T17:46:35.631Z,6.53
2023-05-07T17:49:04.826Z,5.33
2023-05-07T17:51:45.831Z,4.13
2023-05-07T17:54:18.238Z,5.63
2023-05-07T17:56:46.417Z,5.90
2023-05-07T17:59:14.258Z,6.20
2023-05-07T18:01:44.190Z,4.90
2023-05-07T18:04:13.863Z,4.47
2023-05-07T18:06:42.288Z,5.57
2023-05-07T18:09:10.850Z,5.30
2023-05-07T18:11:39.102Z,6.00
2023-05-07T18:14:07.339Z,5.23
2023-05-07T18:16:36.156Z,7.00
2023-05-07T18:19:04.511Z,8.93
2023-05-07T18:21:34.060Z,4.37
2023-05-07T18:24:02.251Z,4.43
2023-05-07T18:26:30.472Z,5.60
2023-05-07T18:28:58.660Z,5.90
2023-05-07T18:31:26.864Z,6.17
2023-05-07T18:33:55.962Z,6.63
2023-05-07T18:36:26.912Z,6.60
2023-05-07T18:38:56.443Z,6.77
2023-05-07T18:41:24.667Z,4.23
2023-05-07T18:43:52.815Z,7.57
2023-05-07T18:46:21.049Z,5.97
2023-05-07T18:48:49.247Z,5.47
2023-05-07T18:51:17.688Z,4.63
2023-05-07T18:53:45.877Z,5.87
2023-05-07T18:56:15.430Z,6.13
2023-05-07T18:58:43.590Z,5.50
2023-05-07T19:01:11.765Z,5.57
2023-05-07T19:03:39.936Z,6.47
2023-05-07T19:06:08.174Z,5.97
2023-05-07T19:08:36.401Z,7.27
2023-05-07T19:11:04.759Z,9.40
2023-05-07T19:13:34.998Z,7.63
2023-05-07T19:16:03.425Z,7.40
2023-05-07T19:18:32.365Z,4.93
2023-05-07T19:21:01.197Z,8.47
2023-05-07T19:23:29.362Z,6.80
2023-05-07T19:25:57.626Z,7.37
2023-05-07T19:28:26.277Z,6.67
2023-05-07T19:30:55.878Z,10.80
2023-05-07T19:33:24.508Z,6.67
2023-05-07T19:35:53.973Z,10.03
2023-05-07T19:38:22.147Z,8.87
2023-05-07T19:40:50.321Z,8.00
2023-05-07T19:43:18.474Z,9.13
2023-05-07T19:45:48.057Z,11.87
2023-05-07T19:48:17.648Z,8.97
2023-05-07T19:50:49.072Z,11.03
2023-05-07T19:53:17.232Z,10.27
2023-05-07T19:55:45.472Z,10.50
2023-05-07T19:58:15.764Z,12.27
2023-05-07T20:00:44.159Z,10.87
2023-05-07T20:03:18.492Z,9.47
2023-05-07T20:05:48.869Z,8.43
2023-05-07T20:08:17.130Z,10.27
2023-05-07T20:10:45.360Z,7.83
2023-05-07T20:13:13.604Z,11.37
2023-05-07T20:15:42.074Z,10.13
2023-05-07T20:18:10.422Z,13.63
2023-05-07T20:20:38.640Z,8.90
2023-05-07T20:23:08.183Z,10.93
2023-05-07T20:25:36.356Z,10.13
2023-05-07T20:28:04.559Z,10.77
2023-05-07T20:30:32.714Z,10.23
2023-05-07T20:33:01.040Z,13.40
2023-05-07T20:35:29.250Z,11.77
2023-05-07T20:37:57.636Z,10.13
2023-05-07T20:40:27.866Z,10.80
2023-05-07T20:42:56.046Z,11.40
2023-05-07T20:45:24.221Z,13.63
2023-05-07T20:47:52.792Z,10.23
2023-05-07T20:50:21.036Z,10.70
2023-05-07T20:52:49.268Z,11.77
2023-05-07T20:55:17.487Z,11.47
2023-05-07T20:57:46.991Z,16.30
2023-05-07T21:00:17.161Z,15.07
2023-05-07T21:02:45.940Z,12.10
2023-05-07T21:05:14.153Z,11.53
2023-05-07T21:07:42.324Z,9.87
2023-05-07T21:10:11.058Z,11.23
2023-05-07T21:12:39.747Z,11.90
2023-05-07T21:15:10.506Z,8.37
2023-05-07T21:17:38.704Z,12.20
2023-05-07T21:20:07.860Z,12.77
2023-05-07T21:22:36.349Z,10.60
2023-05-07T21:25:04.586Z,12.27
2023-05-07T21:27:32.755Z,10.97
2023-05-07T21:30:04.831Z,10.03
2023-05-07T21:32:34.600Z,9.37
2023-05-07T21:35:02.815Z,9.53
2023-05-07T21:37:31.074Z,10.67
2023-05-07T21:39:59.225Z,10.43
2023-05-07T21:42:27.368Z,9.43
2023-05-07T21:44:55.570Z,11.00
2023-05-07T21:47:23.813Z,12.67
2023-05-07T21:49:53.341Z,9.73
2023-05-07T21:52:25.859Z,10.97
2023-05-07T21:54:54.145Z,13.00
2023-05-07T21:57:22.467Z,13.93
2023-05-07T21:59:50.647Z,11.53
2023-05-07T22:02:18.851Z,11.77
2023-05-07T22:04:47.184Z,11.90
2023-05-07T22:07:16.685Z,10.33
2023-05-07T22:09:44.866Z,11.23
2023-05-07T22:12:13.335Z,11.17
2023-05-07T22:14:41.569Z,10.70
2023-05-07T22:17:09.740Z,12.47
2023-05-07T22:19:37.872Z,10.53
2023-05-07T22:22:06.113Z,12.87
2023-05-07T22:24:35.701Z,11.30
2023-05-07T22:27:03.854Z,10.40
2023-05-07T22:29:32.004Z,9.03
2023-05-07T22:32:00.270Z,11.57
2023-05-07T22:34:28.545Z,9.07
2023-05-07T22:36:56.761Z,11.57
2023-05-07T22:39:24.902Z,10.63
2023-05-07T22:41:54.434Z,10.70
2023-05-07T22:44:22.606Z,11.47
2023-05-07T22:46:50.800Z,9.93
2023-05-07T22:49:18.991Z,13.23
2023-05-07T22:51:47.253Z,14.57
2023-05-07T22:54:15.690Z,11.93
2023-05-07T22:56:43.892Z,14.73
2023-05-07T22:59:13.785Z,13.37
2023-05-07T23:01:42.095Z,10.80
2023-05-07T23:04:10.399Z,14.73
2023-05-07T23:06:38.580Z,12.03
2023-05-07T23:09:06.860Z,12.90
2023-05-07T23:11:35.021Z,13.53
2023-05-07T23:14:03.184Z,15.37
2023-05-07T23:16:32.894Z,12.03
2023-05-07T23:19:01.063Z,11.33
2023-05-07T23:21:29.325Z,13.90
2023-05-07T23:23:57.703Z,14.27
2023-05-07T23:26:28.560Z,16.87
2023-05-07T23:28:56.711Z,17.87
2023-05-07T23:31:24.906Z,14.83
2023-05-07T23:33:54.435Z,17.97
2023-05-07T23:36:22.739Z,16.90
2023-05-07T23:38:50.937Z,15.00
2023-05-07T23:41:19.102Z,17.33
2023-05-07T23:43:47.281Z,17.60
2023-05-07T23:46:15.528Z,15.80
2023-05-07T23:48:43.760Z,14.93
2023-05-07T23:51:13.263Z,15.77
2023-05-07T23:53:41.435Z,18.83
2023-05-07T23:56:11.225Z,15.83
2023-05-07T23:58:39.393Z,16.40
